createdAt,value
2022-11-20T00:29:41.219Z,0
2022-11-20T00:30:21.550Z,0
2022-11-20T00:31:02.017Z,0
2022-11-20T00:31:42.548Z,0
2022-11-20T00:32:23.022Z,0
2022-11-20T00:33:03.480Z,0
2022-11-20T00:33:43.953Z,0
2022-11-20T00:34:24.446Z,0
2022-11-20T00:35:05.013Z,0
2022-11-20T00:36:25.981Z,0
2022-11-20T00:43:10.931Z,0
2022-11-20T00:43:51.401Z,0
2022-11-20T00:44:31.877Z,0
2022-11-20T00:45:12.390Z,0
2022-11-20T00:45:52.859Z,0
2022-11-20T00:46:33.411Z,0
2022-11-20T00:47:13.889Z,0
2022-11-20T00:47:54.437Z,0
2022-11-20T00:48:34.950Z,0
2022-11-20T00:49:15.465Z,0
2022-11-20T00:49:55.965Z,0
2022-11-20T00:56:41.054Z,0
2022-11-20T00:57:21.560Z,0
2022-11-20T00:58:04.476Z,0
2022-11-20T00:58:42.568Z,0
2022-11-20T00:59:23.413Z,0
2022-11-20T01:00:03.627Z,0
2022-11-20T01:00:44.166Z,0
2022-11-20T01:01:24.621Z,0
2022-11-20T01:02:05.072Z,0
2022-11-20T01:02:45.553Z,0
2022-11-20T01:03:27.216Z,0
2022-11-20T01:10:11.050Z,0
2022-11-20T01:10:51.466Z,0
2022-11-20T01:11:31.941Z,0
2022-11-20T01:12:12.435Z,0
2022-11-20T01:12:52.995Z,0
2022-11-20T01:13:33.479Z,0
2022-11-20T01:14:13.977Z,0
2022-11-20T01:14:54.476Z,0
2022-11-20T01:15:34.993Z,0
2022-11-20T01:16:55.974Z,0
2022-11-20T01:19:25.364Z,0
2022-11-20T01:20:05.399Z,0
2022-11-20T01:20:45.926Z,0
2022-11-20T01:21:26.458Z,0
2022-11-20T01:22:06.981Z,0
2022-11-20T01:22:47.394Z,0
2022-11-20T01:23:27.882Z,0
2022-11-20T01:24:08.372Z,0
2022-11-20T01:24:48.863Z,0
2022-11-20T01:25:29.358Z,0
2022-11-20T01:26:09.838Z,0
2022-11-20T01:32:54.692Z,0
2022-11-20T01:33:35.202Z,0
2022-11-20T01:34:15.674Z,0
2022-11-20T01:34:56.196Z,0
2022-11-20T01:35:36.656Z,0
2022-11-20T01:36:17.217Z,0
2022-11-20T01:36:57.633Z,0
2022-11-20T01:37:38.124Z,0
2022-11-20T01:38:18.642Z,0
2022-11-20T01:39:39.663Z,0
2022-11-20T01:47:05.072Z,0
2022-11-20T01:47:45.560Z,0
2022-11-20T01:48:26.093Z,0
2022-11-20T01:49:06.692Z,0
2022-11-20T01:49:47.179Z,0
2022-11-20T01:50:27.639Z,0
2022-11-20T01:51:08.186Z,0
2022-11-20T01:51:48.683Z,0
2022-11-20T01:52:29.227Z,0
2022-11-20T01:53:09.805Z,0
2022-11-20T01:59:54.661Z,0
2022-11-20T02:00:35.195Z,0
2022-11-20T02:01:15.823Z,0
2022-11-20T02:01:56.166Z,0
2022-11-20T02:02:36.792Z,0
2022-11-20T02:03:17.373Z,0
2022-11-20T02:03:57.762Z,0
2022-11-20T02:04:38.274Z,0
2022-11-20T02:05:18.736Z,0
2022-11-20T02:05:59.290Z,0
2022-11-20T02:06:39.811Z,0
2022-11-20T02:13:24.691Z,0
2022-11-20T02:14:05.225Z,0
2022-11-20T02:14:45.684Z,0
2022-11-20T02:15:30.061Z,0
2022-11-20T02:16:06.636Z,0
2022-11-20T02:16:47.165Z,0
2022-11-20T02:17:27.715Z,0
2022-11-20T02:18:08.142Z,0
2022-11-20T02:18:48.645Z,0
2022-11-20T02:19:29.177Z,0
2022-11-20T02:20:09.604Z,0
2022-11-20T02:27:35.064Z,0
2022-11-20T02:28:15.561Z,0
2022-11-20T02:28:56.052Z,0
2022-11-20T02:29:36.527Z,0
2022-11-20T02:30:17.044Z,0
2022-11-20T02:30:57.539Z,0
2022-11-20T02:31:38.037Z,0
2022-11-20T02:32:18.554Z,0
2022-11-20T02:35:32.740Z,0
2022-11-20T02:36:13.206Z,0
2022-11-20T02:36:53.703Z,0
2022-11-20T02:37:34.154Z,0
2022-11-20T02:38:14.652Z,0
2022-11-20T02:38:55.131Z,0
2022-11-20T02:39:35.607Z,0
2022-11-20T02:40:16.110Z,0
2022-11-20T02:40:56.643Z,0
2022-11-20T02:41:37.100Z,0
2022-11-20T02:42:17.602Z,0
2022-11-20T02:49:42.962Z,0
2022-11-20T02:50:23.430Z,0
2022-11-20T02:51:03.963Z,0
2022-11-20T02:51:44.430Z,0
2022-11-20T02:52:24.922Z,0
2022-11-20T02:53:05.367Z,0
2022-11-20T02:53:45.833Z,0
2022-11-20T02:54:26.350Z,0
2022-11-20T02:55:06.813Z,0
2022-11-20T02:55:47.276Z,0
2022-11-20T02:56:27.769Z,0
2022-11-20T03:03:12.719Z,0
2022-11-20T03:03:53.193Z,0
2022-11-20T03:04:33.669Z,0
2022-11-20T03:05:14.207Z,0
2022-11-20T03:05:54.696Z,0
2022-11-20T03:06:35.146Z,0
2022-11-20T03:07:15.671Z,0
2022-11-20T03:07:56.134Z,0
2022-11-20T03:08:36.618Z,0
2022-11-20T03:09:17.078Z,0
2022-11-20T03:09:58.193Z,0
2022-11-20T03:16:42.530Z,0
2022-11-20T03:17:23.038Z,0
2022-11-20T03:18:03.536Z,0
2022-11-20T03:18:44.047Z,0
2022-11-20T03:19:24.532Z,0
2022-11-20T03:20:05.031Z,0
2022-11-20T03:20:45.503Z,0
2022-11-20T03:21:26.039Z,0
2022-11-20T03:22:06.505Z,0
2022-11-20T03:22:47.013Z,0
2022-11-20T03:23:27.497Z,0
2022-11-20T03:30:52.918Z,0
2022-11-20T03:31:33.409Z,0
2022-11-20T03:32:13.876Z,0
2022-11-20T03:32:54.333Z,0
2022-11-20T03:33:34.837Z,0
2022-11-20T03:34:15.303Z,0
2022-11-20T03:34:55.796Z,0
2022-11-20T03:35:36.265Z,0
2022-11-20T03:36:16.780Z,0
2022-11-20T03:36:57.272Z,0
2022-11-20T03:37:37.741Z,0
2022-11-20T03:43:02.720Z,0
2022-11-20T03:43:42.770Z,0
2022-11-20T03:44:23.243Z,0
2022-11-20T03:45:03.766Z,0
2022-11-20T03:45:44.280Z,0
2022-11-20T03:46:24.754Z,0
2022-11-20T03:47:05.226Z,0
2022-11-20T03:47:45.727Z,0
2022-11-20T03:48:26.245Z,0
2022-11-20T03:49:06.679Z,0
2022-11-20T03:49:47.194Z,0
2022-11-20T03:50:27.659Z,0
2022-11-20T03:57:53.049Z,0
2022-11-20T03:58:33.526Z,0
2022-11-20T03:59:14.022Z,0
2022-11-20T03:59:54.512Z,0
2022-11-20T04:00:35.028Z,0
2022-11-20T04:01:15.550Z,0
2022-11-20T04:01:56.085Z,0
2022-11-20T04:02:36.441Z,0
2022-11-20T04:03:16.929Z,0
2022-11-20T04:03:57.361Z,0
2022-11-20T04:04:37.885Z,0
2022-11-20T04:11:22.818Z,0
2022-11-20T04:12:03.281Z,0
2022-11-20T04:12:43.807Z,0
2022-11-20T04:13:24.266Z,0
2022-11-20T04:14:04.737Z,0
2022-11-20T04:14:45.243Z,0
2022-11-20T04:15:25.700Z,0
2022-11-20T04:16:06.188Z,0
2022-11-20T04:16:46.691Z,0
2022-11-20T04:17:27.168Z,0
2022-11-20T04:18:07.684Z,0
2022-11-20T04:24:52.619Z,0
2022-11-20T04:25:33.061Z,0
2022-11-20T04:26:13.510Z,0
2022-11-20T04:26:54.011Z,0
2022-11-20T04:27:34.476Z,0
2022-11-20T04:28:14.948Z,0
2022-11-20T04:28:55.409Z,0
2022-11-20T04:29:35.920Z,0
2022-11-20T04:30:16.438Z,0
2022-11-20T04:31:37.402Z,0
2022-11-20T04:32:17.932Z,0
2022-11-20T04:39:02.839Z,0
2022-11-20T04:39:43.368Z,0
2022-11-20T04:40:23.786Z,0
2022-11-20T04:41:04.350Z,0
2022-11-20T04:41:44.793Z,0
2022-11-20T04:42:25.269Z,0
2022-11-20T04:43:05.712Z,0
2022-11-20T04:43:46.171Z,0
2022-11-20T04:44:26.669Z,0
2022-11-20T04:45:07.154Z,0
2022-11-20T04:45:47.709Z,0
2022-11-20T04:52:32.547Z,0
2022-11-20T04:53:13.059Z,0
2022-11-20T04:53:53.544Z,0
2022-11-20T04:54:34.056Z,0
2022-11-20T04:55:14.512Z,0
2022-11-20T04:55:55.048Z,0
2022-11-20T04:56:35.465Z,0
2022-11-20T04:57:15.960Z,0
2022-11-20T04:57:56.453Z,0
2022-11-20T04:59:17.409Z,0
2022-11-20T04:59:57.965Z,0
2022-11-20T05:07:19.583Z,0
2022-11-20T05:08:00.097Z,0
2022-11-20T05:08:40.547Z,0
2022-11-20T05:09:21.193Z,0
2022-11-20T05:10:01.502Z,0
2022-11-20T05:10:42.013Z,0
2022-11-20T05:11:22.462Z,0
2022-11-20T05:12:02.931Z,0
2022-11-20T05:12:43.396Z,0
2022-11-20T05:13:23.884Z,0
2022-11-20T05:20:49.388Z,0
2022-11-20T05:21:29.858Z,0
2022-11-20T05:22:10.372Z,0
2022-11-20T05:22:50.834Z,0
2022-11-20T05:23:31.286Z,0
2022-11-20T05:24:11.776Z,0
2022-11-20T05:24:52.265Z,0
2022-11-20T05:25:32.793Z,0
2022-11-20T05:26:53.757Z,0
2022-11-20T05:27:34.239Z,0
2022-11-20T05:34:19.149Z,0
2022-11-20T05:34:59.633Z,0
2022-11-20T05:35:40.179Z,0
2022-11-20T05:36:20.653Z,0
2022-11-20T05:37:01.153Z,0
2022-11-20T05:37:41.632Z,0
2022-11-20T05:38:22.136Z,0
2022-11-20T05:39:02.645Z,0
2022-11-20T05:39:43.218Z,0
2022-11-20T05:40:23.666Z,0
2022-11-20T05:41:04.102Z,0
2022-11-20T05:48:29.474Z,0
2022-11-20T05:49:09.981Z,0
2022-11-20T05:49:50.482Z,0
2022-11-20T05:50:30.979Z,0
2022-11-20T05:51:52.055Z,0
2022-11-20T05:52:32.551Z,0
2022-11-20T06:32:20.314Z,0
2022-11-20T06:33:00.775Z,0
2022-11-20T06:33:41.244Z,0
2022-11-20T06:34:21.721Z,0
2022-11-20T06:35:02.236Z,0
2022-11-20T06:35:42.767Z,0
2022-11-20T06:36:23.214Z,0
2022-11-20T06:37:03.705Z,0
2022-11-20T06:37:44.240Z,0
2022-11-20T06:38:24.720Z,4
2022-11-20T06:45:50.232Z,0
2022-11-20T06:46:30.715Z,4
2022-11-20T06:47:11.198Z,4
2022-11-20T06:47:51.702Z,4
2022-11-20T06:49:12.661Z,4
2022-11-20T06:49:53.106Z,4
2022-11-20T06:50:33.701Z,4
2022-11-20T06:51:14.810Z,4
2022-11-20T06:51:55.306Z,4
2022-11-20T06:58:40.191Z,8
2022-11-20T06:59:20.938Z,8
2022-11-20T07:00:01.158Z,8
2022-11-20T07:00:41.678Z,8
2022-11-20T07:01:22.226Z,12
2022-11-20T07:02:02.641Z,8
2022-11-20T07:02:43.131Z,12
2022-11-20T07:03:23.639Z,12
2022-11-20T07:04:04.184Z,12
2022-11-20T07:04:44.668Z,12
2022-11-20T07:05:25.146Z,12
2022-11-20T07:12:10.153Z,16
2022-11-20T07:12:50.622Z,16
2022-11-20T07:13:31.108Z,16
2022-11-20T07:14:11.630Z,16
2022-11-20T07:14:52.102Z,20
2022-11-20T07:15:32.595Z,20
2022-11-20T07:16:53.589Z,20
2022-11-20T07:17:34.135Z,20
2022-11-20T07:18:14.595Z,20
2022-11-20T07:18:55.102Z,20
2022-11-20T07:25:40.115Z,32
2022-11-20T07:26:20.578Z,36
2022-11-20T07:27:01.049Z,36
2022-11-20T07:27:41.570Z,36
2022-11-20T07:28:22.042Z,32
2022-11-20T07:29:02.520Z,32
2022-11-20T07:29:43.031Z,32
2022-11-20T07:30:23.528Z,36
2022-11-20T07:31:04.013Z,36
2022-11-20T07:31:44.546Z,32
2022-11-20T07:32:24.997Z,32
2022-11-20T07:39:50.411Z,44
2022-11-20T07:40:30.940Z,44
2022-11-20T07:41:11.393Z,44
2022-11-20T07:41:51.876Z,44
2022-11-20T07:42:32.349Z,48
2022-11-20T07:43:12.835Z,52
2022-11-20T07:43:53.360Z,56
2022-11-20T07:44:33.827Z,52
2022-11-20T07:45:14.345Z,52
2022-11-20T07:45:54.836Z,52
2022-11-20T07:53:20.339Z,60
2022-11-20T07:54:00.798Z,60
2022-11-20T07:54:41.312Z,60
2022-11-20T07:55:21.766Z,64
2022-11-20T07:56:02.250Z,64
2022-11-20T07:56:42.782Z,64
2022-11-20T07:57:28.111Z,72
2022-11-20T07:58:03.767Z,72
2022-11-20T07:58:44.175Z,76
2022-11-20T07:59:24.750Z,80
2022-11-20T08:00:05.176Z,80
2022-11-20T08:06:50.017Z,92
2022-11-20T08:07:30.568Z,92
2022-11-20T08:08:11.009Z,96
2022-11-20T08:08:51.503Z,96
2022-11-20T08:09:31.991Z,96
2022-11-20T08:10:12.474Z,92
2022-11-20T08:10:53.027Z,96
2022-11-20T08:12:13.955Z,112
2022-11-20T08:12:54.450Z,128
2022-11-20T08:13:34.943Z,156
2022-11-20T08:22:32.601Z,208
2022-11-20T08:23:13.133Z,212
2022-11-20T08:23:53.598Z,216
2022-11-20T08:24:34.097Z,216
2022-11-20T08:25:14.585Z,224
2022-11-20T08:25:55.089Z,244
2022-11-20T08:26:35.565Z,284
2022-11-20T08:27:16.047Z,312
2022-11-20T08:28:00.102Z,336
2022-11-20T08:28:37.159Z,348
2022-11-20T08:36:02.541Z,324
2022-11-20T08:36:43.031Z,308
2022-11-20T08:37:23.530Z,292
2022-11-20T08:38:04.020Z,284
2022-11-20T08:38:44.532Z,276
2022-11-20T08:39:25.016Z,264
2022-11-20T08:40:05.481Z,252
2022-11-20T08:40:46.020Z,248
2022-11-20T08:41:26.525Z,256
2022-11-20T08:42:06.973Z,308
2022-11-20T08:42:47.510Z,352
2022-11-20T08:49:32.453Z,416
2022-11-20T08:50:12.963Z,444
2022-11-20T08:50:53.469Z,468
2022-11-20T08:51:34.013Z,476
2022-11-20T08:52:14.495Z,456
2022-11-20T08:52:55.055Z,456
2022-11-20T08:53:35.570Z,452
2022-11-20T08:54:56.517Z,388
2022-11-20T08:55:36.996Z,372
2022-11-20T08:56:17.472Z,368
2022-11-20T09:02:22.279Z,312
2022-11-20T09:03:02.917Z,324
2022-11-20T09:03:43.455Z,364
2022-11-20T09:04:23.869Z,408
2022-11-20T09:05:05.060Z,448
2022-11-20T09:05:45.769Z,452
2022-11-20T09:06:26.105Z,464
2022-11-20T09:07:06.680Z,476
2022-11-20T09:07:47.117Z,476
2022-11-20T09:14:32.495Z,308
2022-11-20T09:15:13.133Z,288
2022-11-20T09:15:53.703Z,300
2022-11-20T09:16:34.137Z,320
2022-11-20T09:17:14.591Z,344
2022-11-20T09:17:55.232Z,368
2022-11-20T09:18:35.736Z,380
2022-11-20T09:19:57.121Z,444
2022-11-20T09:24:42.429Z,564
2022-11-20T09:25:23.007Z,528
2022-11-20T09:26:03.407Z,468
2022-11-20T09:26:44.656Z,408
2022-11-20T09:27:25.129Z,396
2022-11-20T09:28:05.592Z,412
2022-11-20T09:28:46.097Z,440
2022-11-20T09:29:26.723Z,456
2022-11-20T09:30:07.160Z,448
2022-11-20T09:36:52.349Z,340
2022-11-20T09:37:32.946Z,360
2022-11-20T09:38:13.390Z,412
2022-11-20T09:38:54.025Z,484
2022-11-20T09:39:35.025Z,568
2022-11-20T09:40:15.551Z,648
2022-11-20T09:40:56.887Z,664
2022-11-20T09:41:38.013Z,572
2022-11-20T09:44:24.817Z,480
2022-11-20T09:47:39.039Z,368
2022-11-20T09:48:20.114Z,372
2022-11-20T09:49:00.192Z,328
2022-11-20T09:49:40.851Z,300
2022-11-20T09:50:22.957Z,272
2022-11-20T09:53:37.622Z,312
2022-11-20T09:54:18.143Z,292
2022-11-20T09:54:58.621Z,284
2022-11-20T09:58:56.179Z,312
2022-11-20T09:59:36.266Z,348
2022-11-20T10:00:17.479Z,380
2022-11-20T10:00:58.459Z,428
2022-11-20T10:03:43.025Z,468
2022-11-20T10:04:24.185Z,444
2022-11-20T10:05:06.752Z,448
2022-11-20T10:05:47.575Z,468
2022-11-20T10:07:53.055Z,512
2022-11-20T10:08:34.131Z,512
2022-11-20T10:09:15.126Z,512
2022-11-20T10:09:56.086Z,508
2022-11-20T10:10:41.095Z,540
2022-11-20T10:11:18.075Z,572
2022-11-20T10:13:27.812Z,656
2022-11-20T10:16:52.878Z,536
2022-11-20T10:17:33.838Z,528
2022-11-20T10:18:14.839Z,524
2022-11-20T10:18:55.845Z,504
2022-11-20T10:19:36.877Z,484
2022-11-20T10:20:17.977Z,468
2022-11-20T10:23:42.980Z,396
2022-11-20T10:24:23.892Z,372
2022-11-20T10:25:04.887Z,364
2022-11-20T10:25:45.955Z,352
2022-11-20T10:26:27.010Z,348
2022-11-20T10:27:08.012Z,332
2022-11-20T10:30:33.112Z,304
2022-11-20T10:31:14.191Z,296
2022-11-20T10:31:55.203Z,284
2022-11-20T10:32:36.132Z,272
2022-11-20T10:33:17.115Z,260
2022-11-20T10:34:11.422Z,256
2022-11-20T10:37:23.060Z,288
2022-11-20T10:38:04.053Z,288
2022-11-20T10:38:45.078Z,304
2022-11-20T10:39:26.157Z,316
2022-11-20T10:40:07.174Z,300
2022-11-20T10:40:48.131Z,272
2022-11-20T10:44:13.291Z,204
2022-11-20T10:44:56.619Z,212
2022-11-20T10:45:35.367Z,228
2022-11-20T10:46:16.355Z,232
2022-11-20T10:46:57.332Z,224
2022-11-20T10:51:03.244Z,256
2022-11-20T10:51:44.266Z,264
2022-11-20T10:52:25.334Z,272
2022-11-20T10:53:06.344Z,288
2022-11-20T10:53:47.341Z,304
2022-11-20T10:54:28.287Z,324
2022-11-20T10:57:53.213Z,400
2022-11-20T10:58:34.224Z,392
2022-11-20T10:59:15.316Z,356
2022-11-20T10:59:56.294Z,340
2022-11-20T11:00:37.342Z,352
2022-11-20T11:01:18.363Z,380
2022-11-20T11:04:43.416Z,424
2022-11-20T11:05:24.371Z,420
2022-11-20T11:06:05.516Z,416
2022-11-20T11:06:46.509Z,404
2022-11-20T11:07:27.467Z,388
2022-11-20T11:08:08.513Z,380
2022-11-20T11:13:10.910Z,320
2022-11-20T11:13:50.545Z,312
2022-11-20T11:14:31.035Z,308
2022-11-20T11:15:11.499Z,308
2022-11-20T11:16:32.450Z,312
2022-11-20T11:17:12.928Z,304
2022-11-20T11:17:53.405Z,304
2022-11-20T11:18:33.869Z,308
2022-11-20T11:19:14.992Z,292
2022-11-20T11:25:59.847Z,380
2022-11-20T11:26:40.366Z,380
2022-11-20T11:27:20.908Z,380
2022-11-20T11:28:01.414Z,388
2022-11-20T11:28:41.913Z,392
2022-11-20T11:29:22.769Z,396
2022-11-20T11:30:02.855Z,396
2022-11-20T11:30:43.383Z,400
2022-11-20T11:31:23.857Z,416
2022-11-20T11:32:04.373Z,432
2022-11-20T11:32:44.916Z,424
2022-11-20T11:39:29.855Z,284
2022-11-20T11:40:25.750Z,284
2022-11-20T11:40:50.904Z,288
2022-11-20T11:41:31.342Z,284
2022-11-20T11:42:11.845Z,284
2022-11-20T11:42:52.357Z,288
2022-11-20T11:43:36.707Z,284
2022-11-20T11:44:13.415Z,284
2022-11-20T11:44:53.934Z,292
2022-11-20T11:45:34.381Z,304
2022-11-20T11:46:14.877Z,304
2022-11-20T11:53:00.026Z,352
2022-11-20T11:53:40.847Z,364
2022-11-20T12:32:15.662Z,516
2022-11-20T12:32:56.222Z,500
2022-11-20T12:33:36.744Z,492
2022-11-20T12:34:17.527Z,468
2022-11-20T12:34:58.033Z,416
2022-11-20T12:35:38.634Z,404
2022-11-20T12:36:19.171Z,428
2022-11-20T12:40:25.711Z,544
2022-11-20T12:41:06.535Z,564
2022-11-20T12:41:46.984Z,600
2022-11-20T12:42:27.419Z,620
2022-11-20T12:45:44.478Z,652
2022-11-20T12:46:25.893Z,644
2022-11-20T12:47:06.464Z,636
2022-11-20T12:47:46.964Z,632
2022-11-20T12:48:27.477Z,624
2022-11-20T12:51:52.489Z,596
2022-11-20T12:52:32.959Z,588
2022-11-20T12:53:13.454Z,580
2022-11-20T12:53:53.971Z,576
2022-11-20T12:54:34.446Z,572
2022-11-20T12:55:14.928Z,572
2022-11-20T12:55:55.546Z,568
2022-11-20T12:56:36.353Z,560
2022-11-20T12:57:17.123Z,556
2022-11-20T12:57:57.547Z,552
2022-11-20T13:02:42.580Z,548
2022-11-20T13:03:23.343Z,552
2022-11-20T13:04:07.789Z,552
2022-11-20T13:04:44.513Z,552
2022-11-20T13:05:25.033Z,544
2022-11-20T13:06:05.544Z,536
2022-11-20T13:06:45.984Z,524
2022-11-20T13:07:26.611Z,512
2022-11-20T13:08:07.084Z,504
2022-11-20T13:08:47.582Z,504
2022-11-20T13:15:32.733Z,520
2022-11-20T13:16:14.597Z,512
2022-11-20T13:16:53.790Z,504
2022-11-20T13:17:34.310Z,496
2022-11-20T13:18:55.324Z,484
2022-11-20T13:19:35.798Z,480
2022-11-20T13:20:16.276Z,472
2022-11-20T13:21:37.267Z,448
2022-11-20T13:29:02.699Z,352
2022-11-20T13:29:43.196Z,344
2022-11-20T13:30:23.662Z,340
2022-11-20T13:31:04.233Z,336
2022-11-20T13:31:44.694Z,332
2022-11-20T13:32:25.117Z,328
2022-11-20T13:33:05.627Z,328
2022-11-20T13:33:46.118Z,324
2022-11-20T13:34:26.664Z,324
2022-11-20T13:35:07.088Z,324
2022-11-20T13:35:47.600Z,320
2022-11-20T13:42:32.746Z,280
2022-11-20T13:43:13.270Z,284
2022-11-20T13:43:53.752Z,288
2022-11-20T13:44:34.278Z,288
2022-11-20T13:45:14.712Z,292
2022-11-20T13:45:55.248Z,288
2022-11-20T13:46:35.690Z,288
2022-11-20T13:47:16.185Z,288
2022-11-20T13:47:56.652Z,288
2022-11-20T13:48:37.132Z,284
2022-11-20T13:49:17.623Z,280
2022-11-20T13:56:02.913Z,272
2022-11-20T13:56:43.407Z,268
2022-11-20T13:57:23.911Z,260
2022-11-20T13:58:04.430Z,252
2022-11-20T13:58:44.920Z,252
2022-11-20T13:59:25.384Z,244
2022-11-20T14:00:05.984Z,240
2022-11-20T14:00:46.329Z,232
2022-11-20T14:01:26.897Z,228
2022-11-20T14:02:07.356Z,224
2022-11-20T14:08:52.423Z,216
2022-11-20T14:09:32.911Z,216
2022-11-20T14:10:13.395Z,212
2022-11-20T14:10:53.866Z,216
2022-11-20T14:11:34.350Z,216
2022-11-20T14:12:14.819Z,216
2022-11-20T14:12:55.316Z,212
2022-11-20T14:13:35.782Z,208
2022-11-20T14:14:16.258Z,204
2022-11-20T14:14:56.769Z,204
2022-11-20T14:15:40.475Z,200
2022-11-20T14:22:22.349Z,140
2022-11-20T14:23:02.882Z,140
2022-11-20T14:23:43.369Z,132
2022-11-20T14:24:24.113Z,124
2022-11-20T14:25:04.362Z,128
2022-11-20T14:25:44.789Z,136
2022-11-20T14:27:05.825Z,148
2022-11-20T14:27:46.305Z,136
2022-11-20T14:28:26.792Z,132
2022-11-20T14:29:07.279Z,128
2022-11-20T14:36:32.696Z,84
2022-11-20T14:37:16.718Z,84
2022-11-20T14:37:53.672Z,84
2022-11-20T14:38:34.126Z,84
2022-11-20T14:39:14.643Z,84
2022-11-20T14:39:55.187Z,84
2022-11-20T14:40:35.709Z,80
2022-11-20T14:41:16.168Z,80
2022-11-20T14:41:56.686Z,80
2022-11-20T14:42:37.197Z,76
2022-11-20T14:43:17.744Z,72
2022-11-20T14:48:42.757Z,44
2022-11-20T14:51:56.624Z,32
2022-11-20T14:52:37.203Z,32
2022-11-20T14:53:17.728Z,28
2022-11-20T14:53:58.270Z,24
2022-11-20T14:54:38.790Z,24
2022-11-20T15:01:23.983Z,20
2022-11-20T15:02:04.437Z,20
2022-11-20T15:02:44.915Z,20
2022-11-20T15:03:29.220Z,24
2022-11-20T15:04:05.987Z,28
2022-11-20T15:04:46.410Z,28
2022-11-20T15:05:26.966Z,32
2022-11-20T15:06:08.371Z,28
2022-11-20T15:06:48.862Z,28
2022-11-20T15:14:14.263Z,20
2022-11-20T15:14:54.738Z,16
2022-11-20T15:15:35.244Z,20
2022-11-20T15:16:15.704Z,20
2022-11-20T15:16:56.224Z,16
2022-11-20T15:17:36.697Z,16
2022-11-20T15:18:17.169Z,12
2022-11-20T15:18:57.657Z,12
2022-11-20T15:19:38.120Z,12
2022-11-20T15:20:18.569Z,12
2022-11-20T15:20:59.073Z,8
2022-11-20T15:30:02.187Z,8
2022-11-20T15:30:42.680Z,8
2022-11-20T15:31:23.111Z,8
2022-11-20T15:32:03.985Z,4
2022-11-20T15:32:44.082Z,4
2022-11-20T15:33:24.624Z,4
2022-11-20T15:34:05.087Z,8
2022-11-20T15:34:45.556Z,4
2022-11-20T15:35:26.115Z,4
2022-11-20T15:36:06.644Z,4
2022-11-20T15:36:47.059Z,4
2022-11-20T15:43:32.085Z,0
2022-11-20T15:44:12.571Z,0
2022-11-20T15:44:53.039Z,0
2022-11-20T15:45:33.546Z,0
2022-11-20T15:46:14.030Z,0
2022-11-20T15:46:54.523Z,0
2022-11-20T15:47:35.040Z,0
2022-11-20T15:48:15.541Z,0
2022-11-20T15:48:56.055Z,0
2022-11-20T15:49:36.558Z,0
2022-11-20T15:50:17.037Z,0
2022-11-20T15:56:22.857Z,0
2022-11-20T15:57:03.403Z,0
2022-11-20T15:57:43.894Z,0
2022-11-20T15:58:24.385Z,0
2022-11-20T15:59:04.877Z,0
2022-11-20T15:59:45.386Z,0
2022-11-20T16:00:25.875Z,0
2022-11-20T16:01:06.437Z,0
2022-11-20T16:01:46.927Z,0
2022-11-20T16:08:11.447Z,0
2022-11-20T16:08:48.597Z,0
2022-11-20T16:09:29.048Z,0
2022-11-20T16:10:09.578Z,0
2022-11-20T16:10:50.038Z,0
2022-11-20T16:11:30.561Z,0
2022-11-20T16:12:11.092Z,0
2022-11-20T16:12:51.595Z,0
2022-11-20T16:13:32.120Z,0
2022-11-20T16:14:13.338Z,0
2022-11-20T16:20:17.719Z,0
2022-11-20T16:20:58.220Z,0
2022-11-20T16:21:38.698Z,0
2022-11-20T16:22:19.256Z,0
2022-11-20T16:22:59.708Z,0
2022-11-20T16:23:40.198Z,0
2022-11-20T16:24:20.901Z,0
2022-11-20T16:25:01.156Z,0
2022-11-20T16:25:41.656Z,0
2022-11-20T16:26:22.192Z,0
2022-11-20T16:27:02.696Z,0
2022-11-20T16:33:48.056Z,0
2022-11-20T16:34:28.852Z,0
2022-11-20T16:35:09.102Z,0
2022-11-20T16:35:49.533Z,0
2022-11-20T16:36:29.995Z,0
2022-11-20T16:37:10.461Z,0
2022-11-20T16:37:51.007Z,0
2022-11-20T16:38:31.429Z,0
2022-11-20T16:39:11.932Z,0
2022-11-20T16:39:52.449Z,0
2022-11-20T16:40:33.121Z,0
2022-11-20T16:46:37.993Z,0
2022-11-20T16:47:18.473Z,0
2022-11-20T16:47:58.964Z,0
2022-11-20T16:48:39.476Z,0
2022-11-20T16:49:19.968Z,0
2022-11-20T16:50:00.464Z,0
2022-11-20T16:50:40.968Z,0
2022-11-20T16:51:21.468Z,0
2022-11-20T16:52:01.965Z,0
2022-11-20T16:52:42.468Z,0
2022-11-20T16:53:23.026Z,0
2022-11-20T17:00:07.921Z,0
2022-11-20T17:00:51.572Z,0
2022-11-20T17:01:29.103Z,0
2022-11-20T17:02:09.422Z,0
2022-11-20T17:02:49.879Z,0
2022-11-20T17:03:30.402Z,0
2022-11-20T17:04:10.902Z,0
2022-11-20T17:04:51.427Z,0
2022-11-20T17:05:31.991Z,0
2022-11-20T17:06:12.456Z,0
2022-11-20T17:13:39.894Z,0
2022-11-20T17:14:18.345Z,0
2022-11-20T17:14:58.839Z,0
2022-11-20T17:15:39.410Z,0
2022-11-20T17:16:19.935Z,0
2022-11-20T17:17:00.382Z,0
2022-11-20T17:17:40.868Z,0
2022-11-20T17:18:21.359Z,0
2022-11-20T17:19:42.356Z,0
2022-11-20T17:20:22.844Z,0
2022-11-20T17:25:47.899Z,0
2022-11-20T17:26:29.496Z,0
2022-11-20T17:27:09.463Z,0
2022-11-20T17:27:49.925Z,0
2022-11-20T17:28:30.423Z,0
2022-11-20T17:29:10.936Z,0
2022-11-20T17:29:51.472Z,0
2022-11-20T17:30:31.947Z,0
2022-11-20T17:31:12.428Z,0
2022-11-20T17:38:38.090Z,0
2022-11-20T17:39:18.590Z,0
2022-11-20T17:39:59.078Z,0
2022-11-20T17:40:39.526Z,0
2022-11-20T17:41:20.007Z,0
2022-11-20T17:42:00.580Z,0
2022-11-20T17:42:41.091Z,0
2022-11-20T17:43:21.657Z,0
2022-11-20T17:44:02.152Z,0
2022-11-20T17:44:42.638Z,0
2022-11-20T17:51:25.720Z,0
2022-11-20T17:52:06.185Z,0
2022-11-20T17:52:46.781Z,0
2022-11-20T17:53:27.297Z,0
2022-11-20T17:54:07.810Z,0
2022-11-20T18:34:01.853Z,0
2022-11-20T18:34:42.324Z,0
2022-11-20T18:35:22.808Z,0
2022-11-20T18:36:03.307Z,0
2022-11-20T18:36:43.754Z,0
2022-11-20T18:37:24.226Z,0
2022-11-20T18:38:04.724Z,0
2022-11-20T18:38:45.224Z,0
2022-11-20T18:39:25.784Z,0
2022-11-20T18:40:06.265Z,0
2022-11-20T18:40:46.756Z,0
2022-11-20T18:47:31.857Z,0
2022-11-20T18:48:12.288Z,0
2022-11-20T18:48:52.802Z,0
2022-11-20T18:49:33.291Z,0
2022-11-20T18:50:13.772Z,0
2022-11-20T18:50:54.283Z,0
2022-11-20T18:51:34.773Z,0
2022-11-20T18:52:15.270Z,0
2022-11-20T18:52:55.794Z,0
2022-11-20T18:53:36.288Z,0
2022-11-20T18:54:16.752Z,0
2022-11-20T18:59:41.715Z,0
2022-11-20T19:00:22.306Z,0
2022-11-20T19:01:02.813Z,0
2022-11-20T19:01:43.290Z,0
2022-11-20T19:02:23.781Z,0
2022-11-20T19:03:04.303Z,0
2022-11-20T19:03:44.846Z,0
2022-11-20T19:04:25.710Z,0
2022-11-20T19:05:05.831Z,0
2022-11-20T19:05:46.367Z,0
2022-11-20T19:06:26.835Z,0
2022-11-20T19:13:23.536Z,0
2022-11-20T19:14:04.558Z,0
2022-11-20T19:14:44.879Z,0
2022-11-20T19:15:25.423Z,0
2022-11-20T19:16:05.900Z,0
2022-11-20T19:16:46.366Z,0
2022-11-20T19:17:26.883Z,0
2022-11-20T19:18:07.919Z,0
2022-11-20T19:18:48.387Z,0
2022-11-20T19:25:37.859Z,0
2022-11-20T19:26:13.972Z,0
2022-11-20T19:26:54.467Z,0
2022-11-20T19:27:35.034Z,0
2022-11-20T19:28:15.491Z,0
2022-11-20T19:28:56.004Z,0
2022-11-20T19:29:36.506Z,0
2022-11-20T19:30:16.993Z,0
2022-11-20T19:30:57.613Z,0
2022-11-20T19:31:38.053Z,0
2022-11-20T19:32:18.583Z,0
2022-11-20T19:38:23.231Z,0
2022-11-20T19:39:03.778Z,0
2022-11-20T19:39:44.262Z,0
2022-11-20T19:40:24.760Z,0
2022-11-20T19:41:05.244Z,0
2022-11-20T19:41:45.786Z,0
2022-11-20T19:42:26.242Z,0
2022-11-20T19:43:06.721Z,0
2022-11-20T19:43:47.232Z,0
2022-11-20T19:44:27.730Z,0
2022-11-20T19:45:08.281Z,0
2022-11-20T19:51:53.326Z,0
2022-11-20T19:52:33.825Z,0
2022-11-20T19:53:14.327Z,0
2022-11-20T19:53:54.868Z,0
2022-11-20T19:54:35.305Z,0
2022-11-20T19:55:15.787Z,0
2022-11-20T19:55:56.293Z,0
2022-11-20T19:56:36.817Z,0
2022-11-20T19:57:17.324Z,0
2022-11-20T19:57:57.832Z,0
2022-11-20T19:58:38.371Z,0
2022-11-20T20:05:20.143Z,0
2022-11-20T20:06:00.627Z,0
2022-11-20T20:06:41.144Z,0
2022-11-20T20:07:23.033Z,0
2022-11-20T20:08:03.466Z,0
2022-11-20T20:08:43.980Z,0
2022-11-20T20:09:25.273Z,0
2022-11-20T20:10:04.934Z,0
2022-11-20T20:16:49.964Z,0
2022-11-20T20:17:30.440Z,0
2022-11-20T20:18:11.008Z,0
2022-11-20T20:18:51.426Z,0
2022-11-20T20:19:31.919Z,0
2022-11-20T20:20:13.024Z,0
2022-11-20T20:20:53.079Z,0
2022-11-20T20:21:33.588Z,0
2022-11-20T20:22:14.113Z,0
2022-11-20T20:22:54.578Z,0
2022-11-20T20:23:35.067Z,0
2022-11-20T20:30:20.257Z,0
2022-11-20T20:31:00.760Z,0
2022-11-20T20:31:41.258Z,0
2022-11-20T20:32:21.733Z,0
2022-11-20T20:33:02.253Z,0
2022-11-20T20:33:42.705Z,0